Estació municipal de St. Hilari Sacalm (La Selva, Guilleries)

Consulta les dades en temps real de l'estació municipal de St. Hilari Sacalm





Hora UTC 02:00
Temperatura 18.0 ºC
Humitat 79.9 %
Pressió 1024.8 hPa
Pluja 0.0 mm
Velocitat vent 0.2 km/h
Direcció vent W
Radiació solar 0.1 W/m²

Webcam

Dades diàries 2026-09-03



Hora UTC (hivern +1h; estiu +2h)
Temperatura (ºC) Humitat (%) Pressió (hPa) Velocitat vent (km/h) Precipitació (mm) Radiació solar (W/m²)
Hora UTC Aire Humitat Pressió Vel. Dir. Vel. Max Dir. Intent. màx 5 min. Rad. Sol.
00:05 18.8 76.6 1024.8 0.0 NNE 0.0 SSW 0.0 0.1
00:10 18.7 76.7 1024.9 0.0 NNE 0.0 SW 0.0 0.1
00:15 18.6 76.8 1024.9 0.0 NNE 0.0 WSW 0.0 0.1
00:20 18.5 77.1 1024.9 0.0 NNE 0.0 S 0.0 0.1
00:25 18.4 77.7 1024.9 0.0 NNE 0.0 W 0.0 0.1
00:30 18.5 77.6 1024.9 0.0 NNE 0.0 W 0.0 0.1
00:35 18.5 77.2 1024.9 0.0 NNE 0.0 W 0.0 0.1
00:40 18.5 77.3 1025.0 0.0 NNE 0.0 W 0.0 0.1
00:45 18.5 77.3 1025.0 0.0 NNE 0.0 WSW 0.0 0.1
00:50 18.4 77.5 1024.9 0.0 NNE 0.0 SSW 0.0 0.1
00:55 18.3 77.7 1024.9 0.0 NNE 0.0 SSW 0.0 0.1
01:00 18.3 77.7 1024.9 0.0 NNE 0.0 S 0.0 0.1
01:05 18.2 77.6 1024.9 0.0 WSW 3.4 WSW 0.0 0.1
01:10 18.1 78.1 1024.9 0.4 WSW 6.1 W 0.0 0.1
01:15 18.0 78.5 1024.9 0.1 WSW 6.1 W 0.0 0.2
01:20 17.9 78.8 1024.9 0.0 WNW 3.4 W 0.0 0.1
01:25 17.9 78.8 1024.8 0.0 NNE 0.0 W 0.0 0.1
01:30 17.9 78.3 1024.8 0.0 WSW 3.4 WSW 0.0 0.1
01:35 17.9 78.4 1024.8 0.9 W 6.1 WNW 0.0 0.1
01:40 18.1 78.5 1024.8 0.0 NNE 0.0 WNW 0.0 0.1
01:45 18.2 78.2 1024.8 0.0 WSW 3.4 WNW 0.0 0.1
01:50 18.0 78.3 1024.8 0.0 NNE 0.0 WSW 0.0 0.1
01:55 18.0 79.1 1024.8 0.0 W 3.4 W 0.0 0.1
02:00 18.0 79.9 1024.8 0.2 W 6.1 WNW 0.0 0.1
Màxima 18.8 79.9 1025.0 0.9 W 6.1 WNW 0.0 0.2
Mínima 17.9 76.6 1024.8
Total 0.0